sensor_id;sensor_type;location;lat;lon;timestamp;P1;durP1;ratioP1;P2;durP2;ratioP2
25717;SDS011;13574;52.040;5.692;2022-10-30T00:00:56;17.42;;;8.90;;
25717;SDS011;13574;52.040;5.692;2022-10-30T00:03:22;13.65;;;8.50;;
25717;SDS011;13574;52.040;5.692;2022-10-30T00:05:48;17.00;;;8.73;;
25717;SDS011;13574;52.040;5.692;2022-10-30T00:08:16;15.20;;;8.70;;
25717;SDS011;13574;52.040;5.692;2022-10-30T00:10:43;19.20;;;8.55;;
25717;SDS011;13574;52.040;5.692;2022-10-30T00:13:10;19.30;;;9.57;;
25717;SDS011;13574;52.040;5.692;2022-10-30T00:15:36;14.82;;;9.23;;
25717;SDS011;13574;52.040;5.692;2022-10-30T00:18:02;19.20;;;9.43;;
25717;SDS011;13574;52.040;5.692;2022-10-30T00:20:28;15.45;;;8.98;;
25717;SDS011;13574;52.040;5.692;2022-10-30T00:22:54;19.50;;;9.45;;
25717;SDS011;13574;52.040;5.692;2022-10-30T00:25:20;18.60;;;9.73;;
25717;SDS011;13574;52.040;5.692;2022-10-30T00:27:46;16.45;;;8.85;;
25717;SDS011;13574;52.040;5.692;2022-10-30T00:30:11;19.92;;;9.27;;
25717;SDS011;13574;52.040;5.692;2022-10-30T00:32:39;18.88;;;9.40;;
25717;SDS011;13574;52.040;5.692;2022-10-30T00:35:06;16.77;;;8.70;;
25717;SDS011;13574;52.040;5.692;2022-10-30T00:37:33;18.45;;;8.57;;
25717;SDS011;13574;52.040;5.692;2022-10-30T00:39:59;16.77;;;9.07;;
25717;SDS011;13574;52.040;5.692;2022-10-30T00:42:27;20.77;;;9.18;;
25717;SDS011;13574;52.040;5.692;2022-10-30T00:44:54;14.38;;;8.73;;
25717;SDS011;13574;52.040;5.692;2022-10-30T00:47:31;18.35;;;8.85;;
25717;SDS011;13574;52.040;5.692;2022-10-30T00:52:35;15.77;;;9.15;;
25717;SDS011;13574;52.040;5.692;2022-10-30T00:55:13;19.02;;;9.20;;
25717;SDS011;13574;52.040;5.692;2022-10-30T00:57:43;17.00;;;8.60;;
25717;SDS011;13574;52.040;5.692;2022-10-30T01:00:10;18.17;;;9.20;;
25717;SDS011;13574;52.040;5.692;2022-10-30T01:02:37;18.00;;;8.52;;
25717;SDS011;13574;52.040;5.692;2022-10-30T01:05:04;17.48;;;9.07;;
25717;SDS011;13574;52.040;5.692;2022-10-30T01:07:30;18.88;;;9.48;;
25717;SDS011;13574;52.040;5.692;2022-10-30T01:09:56;16.23;;;8.73;;
25717;SDS011;13574;52.040;5.692;2022-10-30T01:12:21;16.23;;;8.85;;
25717;SDS011;13574;52.040;5.692;2022-10-30T01:14:51;15.85;;;8.40;;
25717;SDS011;13574;52.040;5.692;2022-10-30T01:20:28;23.75;;;9.55;;
25717;SDS011;13574;52.040;5.692;2022-10-30T01:28:17;22.17;;;9.10;;
25717;SDS011;13574;52.040;5.692;2022-10-30T01:36:42;21.50;;;9.13;;
25717;SDS011;13574;52.040;5.692;2022-10-30T01:39:13;16.48;;;9.18;;
25717;SDS011;13574;52.040;5.692;2022-10-30T01:41:42;16.88;;;9.52;;
25717;SDS011;13574;52.040;5.692;2022-10-30T01:44:17;14.93;;;8.43;;
25717;SDS011;13574;52.040;5.692;2022-10-30T01:47:22;20.27;;;9.95;;
25717;SDS011;13574;52.040;5.692;2022-10-30T01:58:01;18.65;;;8.85;;
25717;SDS011;13574;52.040;5.692;2022-10-30T02:00:57;18.40;;;9.50;;
25717;SDS011;13574;52.040;5.692;2022-10-30T02:03:23;20.63;;;9.32;;
25717;SDS011;13574;52.040;5.692;2022-10-30T02:05:50;17.67;;;9.65;;
25717;SDS011;13574;52.040;5.692;2022-10-30T02:08:17;15.98;;;9.43;;
25717;SDS011;13574;52.040;5.692;2022-10-30T02:10:46;18.48;;;9.32;;
25717;SDS011;13574;52.040;5.692;2022-10-30T02:13:14;17.33;;;9.70;;
25717;SDS011;13574;52.040;5.692;2022-10-30T02:15:40;19.27;;;9.80;;
25717;SDS011;13574;52.040;5.692;2022-10-30T02:18:07;21.85;;;9.40;;
25717;SDS011;13574;52.040;5.692;2022-10-30T02:20:34;19.60;;;9.05;;
25717;SDS011;13574;52.040;5.692;2022-10-30T02:22:59;18.15;;;9.23;;
25717;SDS011;13574;52.040;5.692;2022-10-30T02:25:25;18.58;;;9.35;;
25717;SDS011;13574;52.040;5.692;2022-10-30T02:27:51;22.40;;;9.40;;
25717;SDS011;13574;52.040;5.692;2022-10-30T02:30:17;14.90;;;9.48;;
25717;SDS011;13574;52.040;5.692;2022-10-30T02:32:42;19.13;;;9.48;;
25717;SDS011;13574;52.040;5.692;2022-10-30T02:35:08;17.35;;;9.60;;
25717;SDS011;13574;52.040;5.692;2022-10-30T02:37:34;15.35;;;9.52;;
25717;SDS011;13574;52.040;5.692;2022-10-30T02:40:00;15.10;;;9.90;;
25717;SDS011;13574;52.040;5.692;2022-10-30T02:42:27;19.70;;;9.73;;
25717;SDS011;13574;52.040;5.692;2022-10-30T02:44:52;20.67;;;10.02;;
25717;SDS011;13574;52.040;5.692;2022-10-30T02:47:18;18.75;;;9.88;;
25717;SDS011;13574;52.040;5.692;2022-10-30T02:49:44;17.85;;;9.73;;
25717;SDS011;13574;52.040;5.692;2022-10-30T02:52:09;17.27;;;9.93;;
25717;SDS011;13574;52.040;5.692;2022-10-30T02:54:35;18.63;;;9.57;;
25717;SDS011;13574;52.040;5.692;2022-10-30T02:57:01;14.52;;;9.18;;
25717;SDS011;13574;52.040;5.692;2022-10-30T02:59:26;20.40;;;9.32;;
25717;SDS011;13574;52.040;5.692;2022-10-30T03:01:53;19.65;;;9.63;;
25717;SDS011;13574;52.040;5.692;2022-10-30T03:04:18;18.00;;;9.75;;
25717;SDS011;13574;52.040;5.692;2022-10-30T03:06:44;16.88;;;9.50;;
25717;SDS011;13574;52.040;5.692;2022-10-30T03:09:10;16.80;;;9.98;;
25717;SDS011;13574;52.040;5.692;2022-10-30T03:11:35;18.33;;;9.50;;
25717;SDS011;13574;52.040;5.692;2022-10-30T03:14:01;17.70;;;10.23;;
25717;SDS011;13574;52.040;5.692;2022-10-30T03:16:27;19.75;;;10.30;;
25717;SDS011;13574;52.040;5.692;2022-10-30T03:21:24;20.60;;;10.15;;
25717;SDS011;13574;52.040;5.692;2022-10-30T03:23:51;17.02;;;9.50;;
25717;SDS011;13574;52.040;5.692;2022-10-30T03:26:17;16.92;;;9.35;;
25717;SDS011;13574;52.040;5.692;2022-10-30T03:28:44;16.38;;;9.57;;
25717;SDS011;13574;52.040;5.692;2022-10-30T03:31:10;18.65;;;10.38;;
25717;SDS011;13574;52.040;5.692;2022-10-30T03:33:37;21.13;;;10.07;;
25717;SDS011;13574;52.040;5.692;2022-10-30T03:36:04;17.05;;;9.52;;
25717;SDS011;13574;52.040;5.692;2022-10-30T03:38:30;17.15;;;9.70;;
25717;SDS011;13574;52.040;5.692;2022-10-30T03:40:56;17.35;;;10.25;;
25717;SDS011;13574;52.040;5.692;2022-10-30T03:43:23;17.02;;;9.60;;
25717;SDS011;13574;52.040;5.692;2022-10-30T03:45:49;19.02;;;10.20;;
25717;SDS011;13574;52.040;5.692;2022-10-30T03:48:19;20.98;;;9.88;;
25717;SDS011;13574;52.040;5.692;2022-10-30T03:53:22;24.42;;;10.25;;
25717;SDS011;13574;52.040;5.692;2022-10-30T03:55:50;20.13;;;10.25;;
25717;SDS011;13574;52.040;5.692;2022-10-30T03:58:23;18.02;;;10.10;;
25717;SDS011;13574;52.040;5.692;2022-10-30T04:00:48;16.60;;;9.55;;
25717;SDS011;13574;52.040;5.692;2022-10-30T04:03:14;16.08;;;8.90;;
25717;SDS011;13574;52.040;5.692;2022-10-30T04:05:39;19.90;;;9.68;;
25717;SDS011;13574;52.040;5.692;2022-10-30T04:08:06;15.85;;;10.02;;
25717;SDS011;13574;52.040;5.692;2022-10-30T04:10:35;18.40;;;10.45;;
25717;SDS011;13574;52.040;5.692;2022-10-30T04:13:02;20.58;;;9.48;;
25717;SDS011;13574;52.040;5.692;2022-10-30T04:15:29;19.52;;;10.68;;
25717;SDS011;13574;52.040;5.692;2022-10-30T04:17:54;19.83;;;10.32;;
25717;SDS011;13574;52.040;5.692;2022-10-30T04:20:20;17.27;;;10.20;;
25717;SDS011;13574;52.040;5.692;2022-10-30T04:22:47;23.73;;;10.68;;
25717;SDS011;13574;52.040;5.692;2022-10-30T04:25:13;16.40;;;9.70;;
25717;SDS011;13574;52.040;5.692;2022-10-30T04:27:42;19.83;;;10.32;;
25717;SDS011;13574;52.040;5.692;2022-10-30T04:30:09;19.20;;;10.20;;
25717;SDS011;13574;52.040;5.692;2022-10-30T04:32:36;17.38;;;10.43;;
25717;SDS011;13574;52.040;5.692;2022-10-30T04:35:13;16.77;;;9.82;;
25717;SDS011;13574;52.040;5.692;2022-10-30T04:37:40;18.48;;;10.48;;
25717;SDS011;13574;52.040;5.692;2022-10-30T04:40:06;21.00;;;10.98;;
25717;SDS011;13574;52.040;5.692;2022-10-30T04:42:32;16.38;;;10.25;;
25717;SDS011;13574;52.040;5.692;2022-10-30T04:44:58;18.90;;;10.63;;
25717;SDS011;13574;52.040;5.692;2022-10-30T04:47:26;20.42;;;11.35;;
25717;SDS011;13574;52.040;5.692;2022-10-30T04:49:52;17.63;;;10.02;;
25717;SDS011;13574;52.040;5.692;2022-10-30T04:52:18;19.17;;;10.48;;
25717;SDS011;13574;52.040;5.692;2022-10-30T04:54:43;24.98;;;10.77;;
25717;SDS011;13574;52.040;5.692;2022-10-30T04:57:09;25.00;;;11.40;;
25717;SDS011;13574;52.040;5.692;2022-10-30T04:59:34;18.92;;;11.65;;
25717;SDS011;13574;52.040;5.692;2022-10-30T05:02:00;22.05;;;11.40;;
25717;SDS011;13574;52.040;5.692;2022-10-30T05:04:26;19.42;;;11.70;;
25717;SDS011;13574;52.040;5.692;2022-10-30T05:06:51;20.58;;;11.57;;
25717;SDS011;13574;52.040;5.692;2022-10-30T05:09:17;20.38;;;11.23;;
25717;SDS011;13574;52.040;5.692;2022-10-30T05:11:42;20.05;;;11.32;;
25717;SDS011;13574;52.040;5.692;2022-10-30T05:14:08;20.38;;;11.57;;
25717;SDS011;13574;52.040;5.692;2022-10-30T05:16:34;26.17;;;11.55;;
25717;SDS011;13574;52.040;5.692;2022-10-30T05:18:59;22.40;;;11.70;;
25717;SDS011;13574;52.040;5.692;2022-10-30T05:21:25;20.02;;;10.63;;
25717;SDS011;13574;52.040;5.692;2022-10-30T05:23:51;20.35;;;10.05;;
25717;SDS011;13574;52.040;5.692;2022-10-30T05:26:16;18.70;;;10.60;;
25717;SDS011;13574;52.040;5.692;2022-10-30T05:28:42;18.20;;;10.88;;
25717;SDS011;13574;52.040;5.692;2022-10-30T05:31:07;20.48;;;10.27;;
25717;SDS011;13574;52.040;5.692;2022-10-30T05:33:33;17.95;;;10.73;;
25717;SDS011;13574;52.040;5.692;2022-10-30T05:35:59;17.48;;;10.88;;
25717;SDS011;13574;52.040;5.692;2022-10-30T05:38:24;22.63;;;10.02;;
25717;SDS011;13574;52.040;5.692;2022-10-30T05:40:50;25.50;;;11.43;;
25717;SDS011;13574;52.040;5.692;2022-10-30T05:43:15;20.90;;;10.82;;
25717;SDS011;13574;52.040;5.692;2022-10-30T05:45:41;18.23;;;9.85;;
25717;SDS011;13574;52.040;5.692;2022-10-30T05:48:07;19.85;;;11.50;;
25717;SDS011;13574;52.040;5.692;2022-10-30T05:50:32;19.52;;;10.35;;
25717;SDS011;13574;52.040;5.692;2022-10-30T05:52:59;23.70;;;10.95;;
25717;SDS011;13574;52.040;5.692;2022-10-30T05:55:27;25.20;;;12.15;;
25717;SDS011;13574;52.040;5.692;2022-10-30T05:57:57;23.05;;;11.77;;
25717;SDS011;13574;52.040;5.692;2022-10-30T06:00:28;19.13;;;10.90;;
25717;SDS011;13574;52.040;5.692;2022-10-30T06:02:58;20.67;;;10.90;;
25717;SDS011;13574;52.040;5.692;2022-10-30T06:05:25;19.50;;;10.63;;
25717;SDS011;13574;52.040;5.692;2022-10-30T06:07:53;25.77;;;10.98;;
25717;SDS011;13574;52.040;5.692;2022-10-30T06:10:20;24.48;;;11.38;;
25717;SDS011;13574;52.040;5.692;2022-10-30T06:13:05;20.30;;;11.70;;
25717;SDS011;13574;52.040;5.692;2022-10-30T06:15:31;23.35;;;12.07;;
25717;SDS011;13574;52.040;5.692;2022-10-30T06:17:57;22.52;;;12.27;;
25717;SDS011;13574;52.040;5.692;2022-10-30T06:20:24;23.40;;;11.75;;
25717;SDS011;13574;52.040;5.692;2022-10-30T06:22:52;21.33;;;12.23;;
25717;SDS011;13574;52.040;5.692;2022-10-30T06:27:48;20.75;;;10.95;;
25717;SDS011;13574;52.040;5.692;2022-10-30T06:30:20;23.60;;;11.90;;
25717;SDS011;13574;52.040;5.692;2022-10-30T06:32:47;24.17;;;12.40;;
25717;SDS011;13574;52.040;5.692;2022-10-30T06:35:13;24.20;;;11.85;;
25717;SDS011;13574;52.040;5.692;2022-10-30T06:37:48;21.52;;;11.20;;
25717;SDS011;13574;52.040;5.692;2022-10-30T06:40:14;24.23;;;11.80;;
25717;SDS011;13574;52.040;5.692;2022-10-30T06:42:41;23.83;;;11.90;;
25717;SDS011;13574;52.040;5.692;2022-10-30T06:45:11;20.40;;;10.73;;
25717;SDS011;13574;52.040;5.692;2022-10-30T06:47:38;17.25;;;10.75;;
25717;SDS011;13574;52.040;5.692;2022-10-30T06:50:04;20.85;;;12.48;;
25717;SDS011;13574;52.040;5.692;2022-10-30T06:52:31;22.08;;;11.45;;
25717;SDS011;13574;52.040;5.692;2022-10-30T06:54:57;23.40;;;11.70;;
25717;SDS011;13574;52.040;5.692;2022-10-30T06:57:22;18.20;;;10.70;;
25717;SDS011;13574;52.040;5.692;2022-10-30T06:59:48;18.40;;;10.20;;
25717;SDS011;13574;52.040;5.692;2022-10-30T07:04:52;18.52;;;10.38;;
25717;SDS011;13574;52.040;5.692;2022-10-30T07:07:18;20.90;;;11.02;;
25717;SDS011;13574;52.040;5.692;2022-10-30T07:09:44;21.38;;;11.45;;
25717;SDS011;13574;52.040;5.692;2022-10-30T07:12:12;18.25;;;10.27;;
25717;SDS011;13574;52.040;5.692;2022-10-30T07:14:38;13.70;;;9.20;;
25717;SDS011;13574;52.040;5.692;2022-10-30T07:17:06;22.77;;;10.10;;
25717;SDS011;13574;52.040;5.692;2022-10-30T07:19:32;16.95;;;9.32;;
25717;SDS011;13574;52.040;5.692;2022-10-30T07:21:59;17.17;;;9.75;;
25717;SDS011;13574;52.040;5.692;2022-10-30T07:24:25;16.75;;;9.20;;
25717;SDS011;13574;52.040;5.692;2022-10-30T07:26:50;15.45;;;8.98;;
25717;SDS011;13574;52.040;5.692;2022-10-30T07:29:25;18.92;;;9.90;;
25717;SDS011;13574;52.040;5.692;2022-10-30T07:31:51;19.52;;;9.55;;
25717;SDS011;13574;52.040;5.692;2022-10-30T07:34:16;22.45;;;10.48;;
25717;SDS011;13574;52.040;5.692;2022-10-30T07:36:42;14.98;;;9.77;;
25717;SDS011;13574;52.040;5.692;2022-10-30T07:39:08;16.50;;;9.63;;
25717;SDS011;13574;52.040;5.692;2022-10-30T07:41:33;17.83;;;8.95;;
25717;SDS011;13574;52.040;5.692;2022-10-30T07:43:59;16.83;;;10.05;;
25717;SDS011;13574;52.040;5.692;2022-10-30T07:46:25;16.05;;;9.73;;
25717;SDS011;13574;52.040;5.692;2022-10-30T07:48:51;19.05;;;10.30;;
25717;SDS011;13574;52.040;5.692;2022-10-30T07:51:16;22.98;;;10.60;;
25717;SDS011;13574;52.040;5.692;2022-10-30T07:53:44;16.75;;;9.82;;
25717;SDS011;13574;52.040;5.692;2022-10-30T07:56:10;21.65;;;10.27;;
25717;SDS011;13574;52.040;5.692;2022-10-30T07:58:36;20.35;;;9.85;;
25717;SDS011;13574;52.040;5.692;2022-10-30T08:01:01;25.25;;;10.13;;
25717;SDS011;13574;52.040;5.692;2022-10-30T08:03:27;17.48;;;10.07;;
25717;SDS011;13574;52.040;5.692;2022-10-30T08:05:53;18.40;;;10.70;;
25717;SDS011;13574;52.040;5.692;2022-10-30T08:08:19;19.30;;;10.95;;
25717;SDS011;13574;52.040;5.692;2022-10-30T08:10:44;19.80;;;10.98;;
25717;SDS011;13574;52.040;5.692;2022-10-30T08:13:12;23.08;;;11.70;;
25717;SDS011;13574;52.040;5.692;2022-10-30T08:15:40;20.15;;;11.57;;
25717;SDS011;13574;52.040;5.692;2022-10-30T08:18:06;18.45;;;12.75;;
25717;SDS011;13574;52.040;5.692;2022-10-30T08:20:32;23.20;;;12.88;;
25717;SDS011;13574;52.040;5.692;2022-10-30T08:22:58;19.40;;;11.82;;
25717;SDS011;13574;52.040;5.692;2022-10-30T08:25:25;21.42;;;11.70;;
25717;SDS011;13574;52.040;5.692;2022-10-30T08:28:02;23.98;;;11.95;;
25717;SDS011;13574;52.040;5.692;2022-10-30T08:30:31;18.63;;;11.38;;
25717;SDS011;13574;52.040;5.692;2022-10-30T08:33:04;21.17;;;11.55;;
25717;SDS011;13574;52.040;5.692;2022-10-30T08:35:31;18.38;;;10.70;;
25717;SDS011;13574;52.040;5.692;2022-10-30T08:37:58;17.77;;;10.88;;
25717;SDS011;13574;52.040;5.692;2022-10-30T08:40:26;16.73;;;10.60;;
25717;SDS011;13574;52.040;5.692;2022-10-30T08:42:53;19.00;;;11.80;;
25717;SDS011;13574;52.040;5.692;2022-10-30T08:45:19;22.50;;;11.40;;
25717;SDS011;13574;52.040;5.692;2022-10-30T08:47:46;21.88;;;11.35;;
25717;SDS011;13574;52.040;5.692;2022-10-30T08:50:12;18.83;;;11.57;;
25717;SDS011;13574;52.040;5.692;2022-10-30T08:52:38;23.48;;;10.77;;
25717;SDS011;13574;52.040;5.692;2022-10-30T08:55:03;19.65;;;11.90;;
25717;SDS011;13574;52.040;5.692;2022-10-30T08:57:34;20.02;;;12.55;;
25717;SDS011;13574;52.040;5.692;2022-10-30T09:00:01;17.67;;;10.80;;
25717;SDS011;13574;52.040;5.692;2022-10-30T09:02:28;19.35;;;11.60;;
25717;SDS011;13574;52.040;5.692;2022-10-30T09:04:53;19.13;;;11.27;;
25717;SDS011;13574;52.040;5.692;2022-10-30T09:07:19;19.35;;;10.15;;
25717;SDS011;13574;52.040;5.692;2022-10-30T09:09:45;19.67;;;11.50;;
25717;SDS011;13574;52.040;5.692;2022-10-30T09:12:10;20.50;;;10.43;;
25717;SDS011;13574;52.040;5.692;2022-10-30T09:14:36;19.52;;;10.70;;
25717;SDS011;13574;52.040;5.692;2022-10-30T09:17:02;20.80;;;10.73;;
25717;SDS011;13574;52.040;5.692;2022-10-30T09:19:27;20.95;;;11.45;;
25717;SDS011;13574;52.040;5.692;2022-10-30T09:21:53;26.17;;;10.88;;
25717;SDS011;13574;52.040;5.692;2022-10-30T09:24:19;20.15;;;10.80;;
25717;SDS011;13574;52.040;5.692;2022-10-30T09:26:45;24.20;;;11.90;;
25717;SDS011;13574;52.040;5.692;2022-10-30T09:29:10;24.38;;;11.30;;
25717;SDS011;13574;52.040;5.692;2022-10-30T09:31:36;21.45;;;10.88;;
25717;SDS011;13574;52.040;5.692;2022-10-30T09:34:02;24.40;;;12.32;;
25717;SDS011;13574;52.040;5.692;2022-10-30T09:36:27;21.40;;;11.98;;
25717;SDS011;13574;52.040;5.692;2022-10-30T09:38:53;22.40;;;10.82;;
25717;SDS011;13574;52.040;5.692;2022-10-30T09:41:30;24.23;;;11.27;;
25717;SDS011;13574;52.040;5.692;2022-10-30T09:49:01;24.58;;;11.45;;
25717;SDS011;13574;52.040;5.692;2022-10-30T09:57:53;22.02;;;10.98;;
25717;SDS011;13574;52.040;5.692;2022-10-30T10:00:38;25.35;;;11.38;;
25717;SDS011;13574;52.040;5.692;2022-10-30T10:03:21;24.17;;;10.70;;
25717;SDS011;13574;52.040;5.692;2022-10-30T10:06:17;22.45;;;10.30;;
25717;SDS011;13574;52.040;5.692;2022-10-30T10:11:38;17.35;;;9.95;;
25717;SDS011;13574;52.040;5.692;2022-10-30T10:14:15;26.83;;;11.70;;
25717;SDS011;13574;52.040;5.692;2022-10-30T10:16:47;21.00;;;11.00;;
25717;SDS011;13574;52.040;5.692;2022-10-30T10:19:32;21.70;;;10.68;;
25717;SDS011;13574;52.040;5.692;2022-10-30T10:22:21;25.85;;;12.00;;
25717;SDS011;13574;52.040;5.692;2022-10-30T10:24:58;21.13;;;10.30;;
25717;SDS011;13574;52.040;5.692;2022-10-30T10:27:37;23.27;;;10.90;;
25717;SDS011;13574;52.040;5.692;2022-10-30T10:35:36;24.52;;;10.52;;
25717;SDS011;13574;52.040;5.692;2022-10-30T10:52:06;21.85;;;10.93;;
25717;SDS011;13574;52.040;5.692;2022-10-30T10:54:40;25.55;;;10.73;;
25717;SDS011;13574;52.040;5.692;2022-10-30T10:57:24;25.15;;;10.80;;
25717;SDS011;13574;52.040;5.692;2022-10-30T11:00:00;22.92;;;10.68;;
25717;SDS011;13574;52.040;5.692;2022-10-30T11:05:21;18.95;;;9.82;;
25717;SDS011;13574;52.040;5.692;2022-10-30T11:08:15;22.50;;;10.73;;
25717;SDS011;13574;52.040;5.692;2022-10-30T11:10:49;24.08;;;10.30;;
25717;SDS011;13574;52.040;5.692;2022-10-30T11:13:21;23.55;;;10.65;;
25717;SDS011;13574;52.040;5.692;2022-10-30T11:18:30;22.02;;;9.85;;
25717;SDS011;13574;52.040;5.692;2022-10-30T11:21:02;20.33;;;9.93;;
25717;SDS011;13574;52.040;5.692;2022-10-30T11:23:44;16.85;;;10.10;;
25717;SDS011;13574;52.040;5.692;2022-10-30T11:31:25;20.90;;;9.70;;
25717;SDS011;13574;52.040;5.692;2022-10-30T11:33:54;18.02;;;9.20;;
25717;SDS011;13574;52.040;5.692;2022-10-30T11:36:23;18.02;;;10.15;;
25717;SDS011;13574;52.040;5.692;2022-10-30T11:38:50;21.33;;;9.45;;
25717;SDS011;13574;52.040;5.692;2022-10-30T11:41:17;21.85;;;9.40;;
25717;SDS011;13574;52.040;5.692;2022-10-30T11:43:44;20.15;;;9.98;;
25717;SDS011;13574;52.040;5.692;2022-10-30T11:46:17;23.38;;;9.68;;
25717;SDS011;13574;52.040;5.692;2022-10-30T11:48:46;18.08;;;9.57;;
25717;SDS011;13574;52.040;5.692;2022-10-30T11:51:27;21.52;;;9.10;;
25717;SDS011;13574;52.040;5.692;2022-10-30T11:53:55;19.10;;;9.23;;
25717;SDS011;13574;52.040;5.692;2022-10-30T11:56:21;22.58;;;9.02;;
25717;SDS011;13574;52.040;5.692;2022-10-30T11:58:57;21.20;;;9.52;;
25717;SDS011;13574;52.040;5.692;2022-10-30T12:01:25;17.27;;;9.00;;
25717;SDS011;13574;52.040;5.692;2022-10-30T12:03:54;17.08;;;9.07;;
25717;SDS011;13574;52.040;5.692;2022-10-30T12:11:31;18.10;;;9.43;;
25717;SDS011;13574;52.040;5.692;2022-10-30T12:13:58;16.30;;;9.98;;
25717;SDS011;13574;52.040;5.692;2022-10-30T12:16:24;18.65;;;9.23;;
25717;SDS011;13574;52.040;5.692;2022-10-30T12:18:52;20.20;;;10.13;;
25717;SDS011;13574;52.040;5.692;2022-10-30T12:21:26;17.83;;;10.27;;
25717;SDS011;13574;52.040;5.692;2022-10-30T12:23:56;21.65;;;10.73;;
25717;SDS011;13574;52.040;5.692;2022-10-30T12:26:25;17.17;;;10.15;;
25717;SDS011;13574;52.040;5.692;2022-10-30T12:28:58;21.92;;;10.15;;
25717;SDS011;13574;52.040;5.692;2022-10-30T12:31:29;22.92;;;11.68;;
25717;SDS011;13574;52.040;5.692;2022-10-30T12:36:35;21.35;;;10.57;;
25717;SDS011;13574;52.040;5.692;2022-10-30T12:39:16;26.27;;;11.88;;
25717;SDS011;13574;52.040;5.692;2022-10-30T12:47:03;23.77;;;11.10;;
25717;SDS011;13574;52.040;5.692;2022-10-30T12:49:55;21.65;;;10.63;;
25717;SDS011;13574;52.040;5.692;2022-10-30T12:52:42;20.63;;;11.02;;
25717;SDS011;13574;52.040;5.692;2022-10-30T12:55:18;21.50;;;10.48;;
25717;SDS011;13574;52.040;5.692;2022-10-30T12:57:47;23.20;;;10.23;;
25717;SDS011;13574;52.040;5.692;2022-10-30T13:00:18;16.98;;;10.50;;
25717;SDS011;13574;52.040;5.692;2022-10-30T13:02:48;20.13;;;11.75;;
25717;SDS011;13574;52.040;5.692;2022-10-30T13:05:24;21.63;;;11.30;;
25717;SDS011;13574;52.040;5.692;2022-10-30T13:07:59;20.27;;;10.20;;
25717;SDS011;13574;52.040;5.692;2022-10-30T13:10:32;23.60;;;11.80;;
25717;SDS011;13574;52.040;5.692;2022-10-30T13:13:31;24.50;;;11.40;;
25717;SDS011;13574;52.040;5.692;2022-10-30T13:15:59;20.52;;;11.10;;
25717;SDS011;13574;52.040;5.692;2022-10-30T13:18:28;22.45;;;11.00;;
25717;SDS011;13574;52.040;5.692;2022-10-30T13:37:44;24.90;;;11.95;;
25717;SDS011;13574;52.040;5.692;2022-10-30T13:40:30;23.42;;;12.85;;
25717;SDS011;13574;52.040;5.692;2022-10-30T13:48:36;27.25;;;12.23;;
25717;SDS011;13574;52.040;5.692;2022-10-30T13:56:33;23.23;;;11.57;;
25717;SDS011;13574;52.040;5.692;2022-10-30T13:59:06;22.10;;;12.02;;
25717;SDS011;13574;52.040;5.692;2022-10-30T14:01:38;21.65;;;11.80;;
25717;SDS011;13574;52.040;5.692;2022-10-30T14:06:52;18.50;;;11.25;;
25717;SDS011;13574;52.040;5.692;2022-10-30T14:09:36;26.48;;;10.50;;
25717;SDS011;13574;52.040;5.692;2022-10-30T14:20:41;21.45;;;10.68;;
25717;SDS011;13574;52.040;5.692;2022-10-30T14:25:50;25.60;;;12.25;;
25717;SDS011;13574;52.040;5.692;2022-10-30T14:38:41;25.38;;;14.18;;
25717;SDS011;13574;52.040;5.692;2022-10-30T14:41:24;25.23;;;13.82;;
25717;SDS011;13574;52.040;5.692;2022-10-30T14:43:51;24.48;;;14.13;;
25717;SDS011;13574;52.040;5.692;2022-10-30T14:49:04;23.75;;;13.52;;
25717;SDS011;13574;52.040;5.692;2022-10-30T14:51:53;25.17;;;13.68;;
25717;SDS011;13574;52.040;5.692;2022-10-30T14:54:43;29.00;;;15.63;;
25717;SDS011;13574;52.040;5.692;2022-10-30T14:57:20;28.60;;;15.75;;
25717;SDS011;13574;52.040;5.692;2022-10-30T14:59:47;26.35;;;15.43;;
25717;SDS011;13574;52.040;5.692;2022-10-30T15:07:43;26.75;;;16.15;;
25717;SDS011;13574;52.040;5.692;2022-10-30T15:10:20;31.33;;;16.98;;
25717;SDS011;13574;52.040;5.692;2022-10-30T15:13:05;32.50;;;18.13;;
25717;SDS011;13574;52.040;5.692;2022-10-30T15:15:39;26.75;;;17.65;;
25717;SDS011;13574;52.040;5.692;2022-10-30T15:18:23;29.10;;;16.23;;
25717;SDS011;13574;52.040;5.692;2022-10-30T15:20:49;31.17;;;17.08;;
25717;SDS011;13574;52.040;5.692;2022-10-30T15:23:20;30.13;;;16.60;;
25717;SDS011;13574;52.040;5.692;2022-10-30T15:25:54;32.92;;;16.98;;
25717;SDS011;13574;52.040;5.692;2022-10-30T15:28:28;25.33;;;17.05;;
25717;SDS011;13574;52.040;5.692;2022-10-30T15:33:26;30.15;;;17.70;;
25717;SDS011;13574;52.040;5.692;2022-10-30T15:35:52;26.98;;;16.23;;
25717;SDS011;13574;52.040;5.692;2022-10-30T15:38:18;30.05;;;16.10;;
25717;SDS011;13574;52.040;5.692;2022-10-30T15:40:43;28.17;;;16.35;;
25717;SDS011;13574;52.040;5.692;2022-10-30T15:43:12;29.33;;;16.63;;
25717;SDS011;13574;52.040;5.692;2022-10-30T15:45:40;29.27;;;16.45;;
25717;SDS011;13574;52.040;5.692;2022-10-30T15:50:42;27.73;;;16.42;;
25717;SDS011;13574;52.040;5.692;2022-10-30T15:53:19;26.80;;;16.33;;
25717;SDS011;13574;52.040;5.692;2022-10-30T15:55:48;31.60;;;16.48;;
25717;SDS011;13574;52.040;5.692;2022-10-30T15:58:16;26.58;;;16.45;;
25717;SDS011;13574;52.040;5.692;2022-10-30T16:00:53;30.83;;;16.40;;
25717;SDS011;13574;52.040;5.692;2022-10-30T16:03:20;30.48;;;16.63;;
25717;SDS011;13574;52.040;5.692;2022-10-30T16:05:46;25.73;;;15.77;;
25717;SDS011;13574;52.040;5.692;2022-10-30T16:08:17;30.80;;;16.40;;
25717;SDS011;13574;52.040;5.692;2022-10-30T16:10:47;30.27;;;17.45;;
25717;SDS011;13574;52.040;5.692;2022-10-30T16:13:18;28.25;;;17.98;;
25717;SDS011;13574;52.040;5.692;2022-10-30T16:15:47;32.28;;;19.38;;
25717;SDS011;13574;52.040;5.692;2022-10-30T16:20:40;31.10;;;19.40;;
25717;SDS011;13574;52.040;5.692;2022-10-30T16:23:10;32.53;;;17.25;;
25717;SDS011;13574;52.040;5.692;2022-10-30T16:25:37;27.63;;;17.45;;
25717;SDS011;13574;52.040;5.692;2022-10-30T16:28:04;32.90;;;16.23;;
25717;SDS011;13574;52.040;5.692;2022-10-30T16:30:31;30.67;;;16.63;;
25717;SDS011;13574;52.040;5.692;2022-10-30T16:32:58;23.90;;;15.40;;
25717;SDS011;13574;52.040;5.692;2022-10-30T16:35:24;23.42;;;14.38;;
25717;SDS011;13574;52.040;5.692;2022-10-30T16:37:51;26.80;;;14.65;;
25717;SDS011;13574;52.040;5.692;2022-10-30T16:40:20;28.08;;;15.32;;
25717;SDS011;13574;52.040;5.692;2022-10-30T16:42:58;30.77;;;15.18;;
25717;SDS011;13574;52.040;5.692;2022-10-30T16:45:43;29.45;;;14.82;;
25717;SDS011;13574;52.040;5.692;2022-10-30T16:48:15;24.95;;;14.88;;
25717;SDS011;13574;52.040;5.692;2022-10-30T16:50:48;25.90;;;15.90;;
25717;SDS011;13574;52.040;5.692;2022-10-30T16:53:23;27.40;;;15.43;;
25717;SDS011;13574;52.040;5.692;2022-10-30T16:55:50;30.45;;;16.63;;
25717;SDS011;13574;52.040;5.692;2022-10-30T16:58:16;24.27;;;15.05;;
25717;SDS011;13574;52.040;5.692;2022-10-30T17:00:48;30.27;;;14.65;;
25717;SDS011;13574;52.040;5.692;2022-10-30T17:03:18;26.25;;;15.13;;
25717;SDS011;13574;52.040;5.692;2022-10-30T17:06:00;24.55;;;14.32;;
25717;SDS011;13574;52.040;5.692;2022-10-30T17:08:29;24.63;;;14.15;;
25717;SDS011;13574;52.040;5.692;2022-10-30T17:11:15;26.08;;;14.55;;
25717;SDS011;13574;52.040;5.692;2022-10-30T17:16:29;25.55;;;13.18;;
25717;SDS011;13574;52.040;5.692;2022-10-30T17:19:00;27.42;;;12.95;;
25717;SDS011;13574;52.040;5.692;2022-10-30T17:21:47;29.83;;;13.90;;